createdAt,value
2023-03-18T00:00:11.276Z,10.70
2023-03-18T00:02:39.288Z,10.70
2023-03-18T00:05:07.992Z,10.70
2023-03-18T00:07:36.146Z,10.60
2023-03-18T00:10:04.424Z,10.60
2023-03-18T00:12:32.325Z,10.60
2023-03-18T00:14:59.625Z,10.50
2023-03-18T00:17:26.694Z,10.50
2023-03-18T00:19:53.778Z,10.50
2023-03-18T00:22:20.394Z,10.40
2023-03-18T00:24:48.801Z,10.40
2023-03-18T00:27:15.418Z,10.40
2023-03-18T00:29:42.161Z,10.30
2023-03-18T00:32:08.982Z,10.30
2023-03-18T00:34:37.247Z,10.30
2023-03-18T00:37:03.860Z,10.20
2023-03-18T00:39:32.886Z,10.20
2023-03-18T00:42:07.920Z,10.10
2023-03-18T00:44:34.498Z,10.10
2023-03-18T00:47:01.330Z,10.10
2023-03-18T00:49:28.160Z,10.10
2023-03-18T00:51:54.797Z,10.00
2023-03-18T00:54:22.401Z,9.90
2023-03-18T00:56:49.458Z,10.00
2023-03-18T00:59:16.616Z,9.90
2023-03-18T01:01:44.197Z,9.90
2023-03-18T01:04:11.349Z,9.80
2023-03-18T01:06:38.411Z,9.70
2023-03-18T01:09:08.696Z,9.70
2023-03-18T01:11:35.493Z,9.60
2023-03-18T01:14:03.486Z,9.60
2023-03-18T01:16:30.284Z,9.60
2023-03-18T01:18:58.212Z,9.60
2023-03-18T01:21:27.465Z,9.50
2023-03-18T01:23:57.590Z,9.50
2023-03-18T01:26:26.288Z,9.50
2023-03-18T01:28:54.806Z,9.60
2023-03-18T01:31:21.996Z,9.50
2023-03-18T01:33:48.948Z,9.60
2023-03-18T01:36:17.422Z,9.60
2023-03-18T01:38:49.245Z,9.60
2023-03-18T01:41:17.099Z,9.60
2023-03-18T01:43:43.956Z,9.60
2023-03-18T01:46:45.410Z,9.60
2023-03-18T01:49:23.849Z,9.70
2023-03-18T01:52:09.215Z,9.70
2023-03-18T01:54:42.181Z,9.60
2023-03-18T01:57:09.336Z,9.60
2023-03-18T01:59:39.904Z,9.60
2023-03-18T02:02:12.601Z,9.60
2023-03-18T02:04:51.379Z,9.60
2023-03-18T02:07:21.464Z,9.60
2023-03-18T02:09:49.859Z,9.70
2023-03-18T02:12:29.357Z,9.70
2023-03-18T02:15:01.896Z,9.80
2023-03-18T02:17:33.089Z,9.80
2023-03-18T02:20:27.850Z,9.70
2023-03-18T02:23:00.915Z,9.60
2023-03-18T02:26:03.389Z,9.60
2023-03-18T02:28:31.775Z,9.60
2023-03-18T02:31:03.725Z,9.50
2023-03-18T02:33:38.817Z,9.50
2023-03-18T02:36:28.255Z,9.50
2023-03-18T02:38:57.667Z,9.50
2023-03-18T02:41:28.683Z,9.50
2023-03-18T02:43:55.920Z,9.50
2023-03-18T02:46:47.502Z,9.50
2023-03-18T02:49:15.594Z,9.60
2023-03-18T02:51:42.349Z,9.60
2023-03-18T02:54:18.307Z,9.60
2023-03-18T02:56:45.161Z,9.60
2023-03-18T02:59:13.003Z,9.60
2023-03-18T03:01:41.297Z,9.60
2023-03-18T03:04:08.331Z,9.50
2023-03-18T03:06:36.540Z,9.50
2023-03-18T03:09:05.909Z,9.60
2023-03-18T03:11:34.600Z,9.50
2023-03-18T03:14:10.817Z,9.50
2023-03-18T03:16:38.752Z,9.60
2023-03-18T03:19:06.841Z,9.60
2023-03-18T03:21:36.476Z,9.60
2023-03-18T03:24:04.661Z,9.60
2023-03-18T03:26:31.825Z,9.60
2023-03-18T03:28:58.744Z,9.60
2023-03-18T03:31:26.260Z,9.70
2023-03-18T03:33:53.463Z,9.70
2023-03-18T03:36:20.356Z,9.70
2023-03-18T03:38:48.214Z,9.80
2023-03-18T03:41:15.891Z,9.80
2023-03-18T03:43:43.318Z,9.80
2023-03-18T03:46:11.090Z,9.90
2023-03-18T03:48:39.478Z,9.80
2023-03-18T03:51:10.525Z,9.80
2023-03-18T03:53:37.160Z,9.80
2023-03-18T03:56:05.138Z,9.80
2023-03-18T03:58:31.975Z,9.80
2023-03-18T04:00:58.624Z,9.80
2023-03-18T04:03:26.505Z,9.70
2023-03-18T04:05:54.600Z,9.70
2023-03-18T04:08:24.074Z,9.70
2023-03-18T04:10:51.765Z,9.60
2023-03-18T04:13:18.553Z,9.60
2023-03-18T04:15:47.470Z,9.60
2023-03-18T04:18:18.038Z,9.50
2023-03-18T04:20:46.124Z,9.40
2023-03-18T04:23:20.696Z,9.40
2023-03-18T04:25:47.687Z,9.30
2023-03-18T04:28:16.253Z,9.30
2023-03-18T04:30:42.909Z,9.20
2023-03-18T04:33:14.479Z,9.20
2023-03-18T04:35:44.671Z,9.20
2023-03-18T04:38:13.607Z,9.20
2023-03-18T04:40:40.922Z,9.10
2023-03-18T04:43:07.560Z,9.30
2023-03-18T04:45:34.538Z,9.20
2023-03-18T04:48:02.708Z,9.20
2023-03-18T04:50:33.116Z,9.10
2023-03-18T04:53:00.103Z,9.10
2023-03-18T04:55:29.285Z,9.10
2023-03-18T04:57:56.880Z,9.10
2023-03-18T05:00:25.930Z,9.10
2023-03-18T05:03:02.028Z,8.90
2023-03-18T05:05:28.661Z,8.90
2023-03-18T05:07:55.408Z,8.80
2023-03-18T05:10:23.829Z,8.80
2023-03-18T05:12:50.764Z,8.80
2023-03-18T05:15:25.859Z,8.70
2023-03-18T05:17:55.113Z,8.60
2023-03-18T05:20:22.397Z,8.60
2023-03-18T05:22:49.933Z,8.50
2023-03-18T05:25:27.990Z,8.60
2023-03-18T05:27:54.779Z,8.60
2023-03-18T05:30:30.400Z,8.70
2023-03-18T05:32:57.152Z,8.40
2023-03-18T05:35:37.377Z,8.40
2023-03-18T05:38:04.485Z,8.30
2023-03-18T05:40:31.401Z,8.20
2023-03-18T05:43:05.709Z,8.10
2023-03-18T05:45:40.456Z,8.10
2023-03-18T05:48:10.547Z,8.10
2023-03-18T05:50:44.556Z,8.20
2023-03-18T05:53:16.882Z,8.20
2023-03-18T05:55:45.549Z,8.10
2023-03-18T05:58:12.738Z,8.10
2023-03-18T06:00:41.471Z,8.10
2023-03-18T06:03:10.093Z,8.10
2023-03-18T06:05:37.189Z,8.10
2023-03-18T06:08:04.290Z,8.10
2023-03-18T06:10:33.379Z,8.10
2023-03-18T06:13:00.864Z,8.10
2023-03-18T06:15:27.646Z,8.00
2023-03-18T06:17:56.186Z,7.90
2023-03-18T06:20:23.299Z,7.90
2023-03-18T06:22:50.297Z,7.90
2023-03-18T06:25:19.383Z,7.90
2023-03-18T06:27:47.705Z,7.80
2023-03-18T06:30:17.287Z,7.80
2023-03-18T06:32:44.770Z,7.90
2023-03-18T06:35:12.324Z,8.00
2023-03-18T06:37:39.944Z,8.00
2023-03-18T06:40:10.507Z,8.00
2023-03-18T06:42:37.489Z,8.10
2023-03-18T06:45:10.506Z,8.20
2023-03-18T06:47:47.855Z,8.30
2023-03-18T06:50:15.172Z,8.40
2023-03-18T06:52:43.535Z,8.50
2023-03-18T06:55:14.676Z,8.60
2023-03-18T06:57:45.547Z,8.70
2023-03-18T07:00:15.696Z,8.80
2023-03-18T07:02:43.175Z,8.90
2023-03-18T07:05:12.836Z,9.00
2023-03-18T07:07:41.914Z,9.10
2023-03-18T07:10:15.214Z,9.10
2023-03-18T07:12:41.924Z,9.10
2023-03-18T07:15:09.140Z,9.10
2023-03-18T07:17:37.195Z,9.10
2023-03-18T07:20:05.422Z,9.20
2023-03-18T07:22:35.024Z,9.20
2023-03-18T07:25:01.648Z,9.30
2023-03-18T07:27:29.707Z,9.40
2023-03-18T07:29:57.031Z,9.50
2023-03-18T07:32:23.711Z,9.70
2023-03-18T07:34:50.470Z,9.80
2023-03-18T07:37:17.072Z,10.00
2023-03-18T07:39:43.775Z,10.20
2023-03-18T07:42:11.209Z,10.50
2023-03-18T07:44:41.308Z,10.80
2023-03-18T07:47:07.984Z,11.10
2023-03-18T07:49:34.670Z,11.30
2023-03-18T07:52:02.062Z,11.40
2023-03-18T07:54:28.646Z,11.50
2023-03-18T07:56:55.285Z,11.80
2023-03-18T07:59:22.168Z,12.00
2023-03-18T08:01:48.913Z,12.10
2023-03-18T08:04:16.435Z,12.00
2023-03-18T08:06:43.339Z,12.10
2023-03-18T08:09:10.557Z,12.40
2023-03-18T08:11:38.023Z,12.60
2023-03-18T08:14:04.616Z,12.70
2023-03-18T08:16:31.403Z,12.60
2023-03-18T08:18:58.469Z,12.50
2023-03-18T08:21:25.396Z,12.70
2023-03-18T08:23:52.089Z,12.70
2023-03-18T08:26:19.288Z,12.60
2023-03-18T08:28:45.862Z,12.50
2023-03-18T08:31:14.119Z,12.40
2023-03-18T08:33:41.414Z,12.40
2023-03-18T08:36:08.594Z,12.40
2023-03-18T08:38:35.814Z,12.30
2023-03-18T08:41:03.794Z,12.30
2023-03-18T08:43:30.361Z,12.30
2023-03-18T08:45:57.481Z,12.40
2023-03-18T08:48:25.681Z,12.50
2023-03-18T08:50:52.613Z,12.60
2023-03-18T08:53:19.804Z,12.50
2023-03-18T08:55:47.142Z,12.70
2023-03-18T08:58:13.758Z,12.80
2023-03-18T09:00:41.672Z,13.10
2023-03-18T09:03:09.974Z,13.20
2023-03-18T09:05:37.652Z,13.20
2023-03-18T09:08:05.179Z,13.20
2023-03-18T09:10:33.131Z,13.10
2023-03-18T09:13:00.782Z,13.10
2023-03-18T09:15:27.734Z,13.00
2023-03-18T09:18:10.429Z,12.90
2023-03-18T09:20:39.093Z,12.90
2023-03-18T09:23:06.389Z,12.90
2023-03-18T09:25:34.119Z,12.90
2023-03-18T09:28:01.150Z,13.00
2023-03-18T09:30:28.477Z,12.90
2023-03-18T09:32:56.418Z,12.90
2023-03-18T09:35:24.068Z,12.90
2023-03-18T09:37:51.825Z,12.80
2023-03-18T09:40:38.004Z,12.80
2023-03-18T09:43:39.106Z,12.80
2023-03-18T09:46:16.212Z,12.90
2023-03-18T09:49:20.416Z,13.10
2023-03-18T09:52:17.008Z,13.20
2023-03-18T09:54:47.476Z,13.20
2023-03-18T09:57:32.147Z,13.40
2023-03-18T10:00:09.034Z,13.30
2023-03-18T10:02:41.612Z,13.40
2023-03-18T10:05:33.337Z,13.40
2023-03-18T10:08:11.551Z,13.50
2023-03-18T10:10:46.044Z,13.50
2023-03-18T10:13:25.402Z,13.60
2023-03-18T10:15:57.472Z,13.80
2023-03-18T10:18:33.303Z,14.20
2023-03-18T10:21:20.333Z,14.30
2023-03-18T10:24:02.656Z,14.20
2023-03-18T10:26:39.679Z,14.30
2023-03-18T10:29:34.590Z,14.50
2023-03-18T10:32:16.789Z,14.40
2023-03-18T10:35:09.336Z,14.60
2023-03-18T10:38:04.416Z,14.70
2023-03-18T10:40:41.184Z,15.00
2023-03-18T10:43:20.736Z,15.20
2023-03-18T10:45:52.631Z,15.20
2023-03-18T10:48:42.343Z,15.20
2023-03-18T10:51:27.197Z,15.20
2023-03-18T10:54:15.617Z,15.10
2023-03-18T10:56:42.799Z,15.20
2023-03-18T10:59:16.693Z,15.30
2023-03-18T11:01:46.796Z,15.30
2023-03-18T11:04:16.996Z,15.30
2023-03-18T11:06:51.568Z,15.40
2023-03-18T11:09:21.968Z,15.30
2023-03-18T11:11:55.621Z,15.40
2023-03-18T11:14:28.823Z,15.50
2023-03-18T11:17:06.042Z,15.70
2023-03-18T11:19:41.648Z,15.70
2023-03-18T11:22:28.470Z,15.60
2023-03-18T11:25:20.019Z,15.70
2023-03-18T11:27:52.225Z,15.70
2023-03-18T11:30:34.491Z,15.70
2023-03-18T11:33:10.922Z,15.80
2023-03-18T11:35:57.320Z,15.80
2023-03-18T11:38:33.371Z,15.70
2023-03-18T11:41:16.888Z,15.60
2023-03-18T11:44:03.653Z,15.60
2023-03-18T11:46:43.070Z,15.60
2023-03-18T11:49:15.268Z,15.50
2023-03-18T11:51:45.645Z,15.50
2023-03-18T11:54:18.436Z,15.50
2023-03-18T11:57:14.613Z,15.50
2023-03-18T12:00:07.593Z,15.40
2023-03-18T12:02:40.106Z,15.30
2023-03-18T12:05:20.099Z,15.20
2023-03-18T12:08:09.894Z,15.30
2023-03-18T12:10:42.252Z,15.50
2023-03-18T12:13:21.615Z,15.70
2023-03-18T12:16:11.248Z,15.70
2023-03-18T12:18:58.643Z,15.70
2023-03-18T12:22:11.493Z,15.80
2023-03-18T12:24:59.928Z,15.90
2023-03-18T12:27:36.931Z,16.00
2023-03-18T12:30:20.787Z,16.10
2023-03-18T12:33:16.127Z,16.30
2023-03-18T12:36:02.140Z,16.40
2023-03-18T12:38:59.816Z,16.40
2023-03-18T12:41:41.337Z,16.80
2023-03-18T12:44:25.381Z,16.70
2023-03-18T12:47:07.719Z,16.50
2023-03-18T12:49:44.654Z,16.30
2023-03-18T12:52:23.725Z,16.20
2023-03-18T12:55:06.666Z,16.30
2023-03-18T12:57:38.029Z,16.40
2023-03-18T13:00:23.653Z,16.50
2023-03-18T13:02:59.154Z,16.40
2023-03-18T13:05:38.125Z,16.50
2023-03-18T13:08:29.261Z,16.50
2023-03-18T13:11:37.912Z,16.40
2023-03-18T13:14:24.145Z,16.60
2023-03-18T13:16:53.025Z,16.60
2023-03-18T13:19:19.857Z,16.70
2023-03-18T13:21:52.480Z,16.70
2023-03-18T13:24:48.974Z,16.60
2023-03-18T13:27:44.577Z,16.50
2023-03-18T13:30:37.248Z,16.50
2023-03-18T13:33:23.819Z,16.50
2023-03-18T13:36:10.727Z,16.70
2023-03-18T13:38:52.354Z,16.80
2023-03-18T13:41:47.528Z,16.80
2023-03-18T13:44:41.618Z,16.90
2023-03-18T13:47:13.826Z,16.90
2023-03-18T13:49:41.070Z,17.20
2023-03-18T13:52:25.938Z,17.20
2023-03-18T13:54:52.854Z,17.20
2023-03-18T13:57:46.909Z,17.20
2023-03-18T14:00:33.930Z,17.40
2023-03-18T14:03:22.936Z,17.20
2023-03-18T14:05:52.201Z,17.00
2023-03-18T14:08:38.255Z,16.90
2023-03-18T14:11:17.214Z,16.80
2023-03-18T14:13:44.871Z,16.70
2023-03-18T14:16:20.229Z,16.70
2023-03-18T14:19:00.232Z,16.70
2023-03-18T14:21:31.971Z,16.80
2023-03-18T14:24:17.758Z,16.90
2023-03-18T14:26:59.409Z,16.90
2023-03-18T14:29:31.046Z,17.00
2023-03-18T14:31:59.693Z,16.90
2023-03-18T14:34:29.227Z,17.00
2023-03-18T14:36:56.207Z,17.00
2023-03-18T14:39:43.067Z,16.70
2023-03-18T14:42:29.327Z,16.50
2023-03-18T14:45:02.470Z,16.50
2023-03-18T14:47:52.216Z,16.50
2023-03-18T14:50:29.481Z,16.60
2023-03-18T14:53:00.599Z,16.60
2023-03-18T14:55:32.498Z,16.70
2023-03-18T14:57:59.517Z,16.70
2023-03-18T15:00:28.391Z,16.70
2023-03-18T15:03:03.656Z,16.80
2023-03-18T15:05:37.438Z,16.70
2023-03-18T15:08:09.310Z,16.60
2023-03-18T15:10:36.341Z,16.50
2023-03-18T15:13:11.458Z,16.50
2023-03-18T15:15:38.806Z,16.50
2023-03-18T15:18:24.253Z,16.60
2023-03-18T15:20:57.417Z,16.70
2023-03-18T15:23:30.789Z,16.50
2023-03-18T15:25:57.654Z,16.50
2023-03-18T15:28:27.665Z,16.50
2023-03-18T15:30:56.906Z,16.50
2023-03-18T15:33:29.757Z,16.70
2023-03-18T15:36:03.062Z,16.70
2023-03-18T15:38:31.724Z,16.70
2023-03-18T15:41:09.994Z,16.70
2023-03-18T15:43:44.963Z,16.60
2023-03-18T15:46:30.984Z,16.50
2023-03-18T15:49:01.100Z,16.50
2023-03-18T15:51:38.577Z,16.60
2023-03-18T15:54:15.772Z,16.60
2023-03-18T15:56:48.707Z,16.60
2023-03-18T15:59:18.712Z,16.60
2023-03-18T16:01:47.194Z,16.50
2023-03-18T16:04:17.730Z,16.50
2023-03-18T16:06:44.963Z,16.50
2023-03-18T16:09:20.601Z,16.60
2023-03-18T16:12:01.417Z,16.50
2023-03-18T16:14:37.161Z,16.50
2023-03-18T16:17:03.853Z,16.50
2023-03-18T16:19:30.831Z,16.50
2023-03-18T16:21:58.774Z,16.40
2023-03-18T16:24:25.815Z,16.40
2023-03-18T16:26:54.066Z,16.40
2023-03-18T16:29:41.488Z,16.30
2023-03-18T16:32:12.540Z,16.30
2023-03-18T16:34:39.609Z,16.30
2023-03-18T16:37:06.531Z,16.30
2023-03-18T16:39:35.344Z,16.20
2023-03-18T16:42:04.233Z,16.20
2023-03-18T16:44:33.341Z,16.00
2023-03-18T16:47:02.262Z,15.90
2023-03-18T16:49:34.184Z,15.90
2023-03-18T16:52:03.642Z,15.80
2023-03-18T16:54:32.758Z,15.80
2023-03-18T16:57:02.857Z,15.80
2023-03-18T16:59:33.659Z,15.90
2023-03-18T17:02:00.635Z,15.90
2023-03-18T17:04:34.894Z,15.80
2023-03-18T17:07:04.926Z,15.70
2023-03-18T17:09:31.943Z,15.70
2023-03-18T17:12:03.772Z,15.60
2023-03-18T17:14:38.464Z,15.60
2023-03-18T17:17:13.950Z,15.50
2023-03-18T17:19:41.121Z,15.30
2023-03-18T17:22:24.521Z,15.00
2023-03-18T17:24:51.395Z,14.70
2023-03-18T17:27:31.730Z,14.30
2023-03-18T17:29:58.375Z,13.90
2023-03-18T17:32:25.896Z,13.30
2023-03-18T17:34:53.613Z,12.90
2023-03-18T17:37:20.954Z,12.70
2023-03-18T17:39:47.866Z,12.50
2023-03-18T17:42:28.046Z,12.40
2023-03-18T17:44:55.452Z,12.40
2023-03-18T17:47:22.557Z,12.30
2023-03-18T17:49:49.150Z,12.30
2023-03-18T17:52:20.806Z,12.30
2023-03-18T17:54:47.961Z,12.20
2023-03-18T17:57:16.076Z,12.30
2023-03-18T17:59:42.697Z,12.30
2023-03-18T18:02:18.210Z,12.30
2023-03-18T18:04:45.787Z,12.30
2023-03-18T18:07:21.675Z,12.30
2023-03-18T18:09:49.473Z,12.30
2023-03-18T18:12:25.104Z,12.30
2023-03-18T18:14:51.788Z,12.30
2023-03-18T18:17:18.970Z,12.30
2023-03-18T18:19:46.336Z,12.30
2023-03-18T18:22:22.705Z,12.30
2023-03-18T18:24:50.246Z,12.30
2023-03-18T18:27:16.884Z,12.30
2023-03-18T18:29:45.543Z,12.30
2023-03-18T18:32:12.730Z,12.20
2023-03-18T18:34:39.471Z,12.30
2023-03-18T18:37:06.576Z,12.30
2023-03-18T18:39:33.260Z,12.30
2023-03-18T18:41:59.992Z,12.30
2023-03-18T18:44:28.188Z,12.20
2023-03-18T18:46:54.935Z,12.20
2023-03-18T18:49:24.339Z,12.20
2023-03-18T18:51:55.551Z,12.10
2023-03-18T18:54:23.248Z,12.10
2023-03-18T18:56:50.699Z,12.10
2023-03-18T18:59:24.568Z,12.00
2023-03-18T19:01:51.789Z,12.00
2023-03-18T19:04:18.743Z,12.10
2023-03-18T19:06:46.222Z,12.10
2023-03-18T19:09:19.238Z,12.10
2023-03-18T19:11:47.049Z,11.90
2023-03-18T19:14:18.270Z,11.90
2023-03-18T19:16:45.375Z,11.90
2023-03-18T19:19:20.598Z,11.90
2023-03-18T19:21:47.331Z,11.90
2023-03-18T19:24:28.199Z,11.70
2023-03-18T19:26:57.534Z,11.70
2023-03-18T19:29:25.160Z,11.70
2023-03-18T19:31:52.548Z,11.50
2023-03-18T19:34:20.044Z,11.40
2023-03-18T19:36:48.945Z,11.30
2023-03-18T19:39:18.741Z,11.30
2023-03-18T19:41:47.469Z,11.30
2023-03-18T19:44:22.557Z,11.30
2023-03-18T19:46:51.699Z,11.30
2023-03-18T19:49:36.541Z,11.30
2023-03-18T19:52:21.868Z,11.10
2023-03-18T19:54:49.525Z,11.20
2023-03-18T19:57:23.254Z,11.10
2023-03-18T19:59:52.125Z,10.90
2023-03-18T20:02:25.589Z,10.80
2023-03-18T20:04:57.930Z,10.80
2023-03-18T20:07:26.880Z,10.80
2023-03-18T20:09:54.408Z,10.70
2023-03-18T20:12:26.302Z,10.70
2023-03-18T20:14:53.179Z,10.70
2023-03-18T20:17:37.044Z,10.70
2023-03-18T20:20:05.289Z,10.80
2023-03-18T20:22:37.916Z,10.80
2023-03-18T20:25:06.923Z,10.80
2023-03-18T20:27:33.850Z,10.70
2023-03-18T20:30:01.097Z,10.70
2023-03-18T20:32:27.709Z,10.70
2023-03-18T20:34:56.507Z,10.70
2023-03-18T20:37:34.430Z,10.70
2023-03-18T20:40:03.686Z,10.70
2023-03-18T20:42:30.996Z,10.60
2023-03-18T20:44:57.587Z,10.50
2023-03-18T20:47:24.223Z,10.40
2023-03-18T20:49:50.862Z,10.40
2023-03-18T20:52:27.279Z,10.30
2023-03-18T20:54:55.090Z,10.20
2023-03-18T20:57:21.699Z,10.20
2023-03-18T20:59:48.771Z,10.10
2023-03-18T21:02:33.112Z,10.10
2023-03-18T21:05:01.546Z,10.10
2023-03-18T21:07:28.961Z,10.00
2023-03-18T21:09:55.793Z,10.00
2023-03-18T21:12:22.646Z,9.90
2023-03-18T21:14:49.891Z,10.10
2023-03-18T21:17:25.190Z,10.10
2023-03-18T21:19:53.439Z,10.10
2023-03-18T21:22:22.541Z,10.10
2023-03-18T21:24:49.717Z,10.00
2023-03-18T21:27:22.201Z,10.00
2023-03-18T21:29:50.894Z,10.00
2023-03-18T21:32:27.195Z,9.80
2023-03-18T21:34:54.796Z,9.80
2023-03-18T21:37:25.391Z,9.80
2023-03-18T21:39:52.139Z,9.80
2023-03-18T21:42:22.186Z,9.70
2023-03-18T21:44:49.136Z,9.60
2023-03-18T21:47:17.887Z,9.60
2023-03-18T21:49:45.659Z,9.40
2023-03-18T21:52:31.929Z,9.40
2023-03-18T21:54:59.613Z,9.40
2023-03-18T21:57:27.202Z,9.40
2023-03-18T21:59:54.104Z,9.30
2023-03-18T22:02:35.736Z,9.40
2023-03-18T22:05:12.042Z,9.30
2023-03-18T22:07:38.649Z,9.30
2023-03-18T22:10:06.972Z,9.40
2023-03-18T22:12:33.833Z,9.40
2023-03-18T22:15:01.002Z,9.30
2023-03-18T22:17:32.615Z,9.20
2023-03-18T22:20:01.745Z,9.10
2023-03-18T22:22:34.425Z,9.00
2023-03-18T22:25:01.057Z,9.10
2023-03-18T22:27:30.208Z,9.10
2023-03-18T22:29:58.973Z,9.10
2023-03-18T22:32:41.458Z,9.00
2023-03-18T22:35:22.789Z,8.80
2023-03-18T22:37:50.208Z,8.90
2023-03-18T22:40:25.212Z,8.70
2023-03-18T22:42:53.126Z,8.60
2023-03-18T22:45:28.718Z,8.50
2023-03-18T22:47:57.669Z,8.50
2023-03-18T22:50:26.583Z,8.50
2023-03-18T22:53:01.756Z,8.40
2023-03-18T22:55:34.694Z,8.30
2023-03-18T22:58:01.695Z,8.20
2023-03-18T23:00:37.908Z,8.00
2023-03-18T23:03:12.092Z,8.10
2023-03-18T23:05:38.740Z,8.00
2023-03-18T23:08:05.950Z,7.90
2023-03-18T23:10:33.002Z,7.90
2023-03-18T23:12:59.639Z,7.80
2023-03-18T23:15:26.249Z,7.70
2023-03-18T23:17:52.827Z,7.80
2023-03-18T23:20:19.561Z,7.90
2023-03-18T23:22:46.518Z,7.90
2023-03-18T23:25:16.498Z,7.80
2023-03-18T23:27:44.304Z,7.80
2023-03-18T23:30:12.873Z,7.70
2023-03-18T23:32:40.680Z,7.70
2023-03-18T23:35:08.574Z,7.60
2023-03-18T23:37:35.608Z,7.60
2023-03-18T23:40:02.976Z,7.70
2023-03-18T23:42:29.598Z,7.60
2023-03-18T23:44:56.294Z,7.60
2023-03-18T23:47:23.026Z,7.50
2023-03-18T23:49:49.651Z,7.40
2023-03-18T23:52:16.588Z,7.30
2023-03-18T23:54:43.311Z,7.30
2023-03-18T23:57:11.126Z,7.30
2023-03-18T23:59:38.368Z,7.30
